createdAt,value
2022-12-08T00:01:54.762Z,12.18
2022-12-08T00:03:59.551Z,12.63
2022-12-08T00:06:22.325Z,12.82
2022-12-08T00:08:42.645Z,11.70
2022-12-08T00:10:50.104Z,11.57
2022-12-08T00:12:52.918Z,11.63
2022-12-08T00:14:55.631Z,10.90
2022-12-08T00:17:00.002Z,12.30
2022-12-08T00:19:02.770Z,10.90
2022-12-08T00:21:07.307Z,9.55
2022-12-08T00:23:10.011Z,12.45
2022-12-08T00:25:12.670Z,12.23
2022-12-08T00:27:18.096Z,13.93
2022-12-08T00:29:20.799Z,14.30
2022-12-08T00:31:23.546Z,13.35
2022-12-08T00:33:26.409Z,12.80
2022-12-08T00:35:29.049Z,13.50
2022-12-08T00:37:33.227Z,13.05
2022-12-08T00:39:36.088Z,11.55
2022-12-08T00:41:56.495Z,14.13
2022-12-08T00:43:59.366Z,12.65
2022-12-08T00:46:02.159Z,13.00
2022-12-08T00:48:05.361Z,12.90
2022-12-08T00:50:09.091Z,13.98
2022-12-08T00:52:12.611Z,15.40
2022-12-08T00:54:18.064Z,13.95
2022-12-08T00:56:20.786Z,13.57
2022-12-08T00:58:23.378Z,13.90
2022-12-08T01:00:26.187Z,10.82
2022-12-08T01:02:28.835Z,11.50
2022-12-08T01:04:31.478Z,14.05
2022-12-08T01:06:36.014Z,14.25
2022-12-08T01:08:39.630Z,10.52
2022-12-08T01:10:43.779Z,11.95
2022-12-08T01:12:46.461Z,11.23
2022-12-08T01:14:49.084Z,11.52
2022-12-08T01:16:52.072Z,12.60
2022-12-08T01:18:55.326Z,15.40
2022-12-08T01:21:03.417Z,12.18
2022-12-08T01:23:06.106Z,12.38
2022-12-08T01:25:09.691Z,12.45
2022-12-08T01:27:16.330Z,13.52
2022-12-08T01:29:19.264Z,14.15
2022-12-08T01:31:23.932Z,13.98
2022-12-08T01:33:27.709Z,13.93
2022-12-08T01:35:30.364Z,12.98
2022-12-08T01:37:33.034Z,14.68
2022-12-08T01:39:36.412Z,12.45
2022-12-08T01:41:39.620Z,12.30
2022-12-08T01:43:56.652Z,13.73
2022-12-08T01:45:59.374Z,14.50
2022-12-08T01:48:07.180Z,12.85
2022-12-08T01:50:12.620Z,12.98
2022-12-08T01:52:19.753Z,13.80
2022-12-08T01:54:26.865Z,13.30
2022-12-08T01:56:36.159Z,14.48
2022-12-08T01:58:42.617Z,11.68
2022-12-08T02:00:46.917Z,15.32
2022-12-08T02:02:55.292Z,14.13
2022-12-08T02:04:57.994Z,15.05
2022-12-08T02:07:06.374Z,14.07
2022-12-08T02:09:11.439Z,14.48
2022-12-08T02:11:14.835Z,17.02
2022-12-08T02:13:19.948Z,12.15
2022-12-08T02:15:27.262Z,15.00
2022-12-08T02:17:46.565Z,14.18
2022-12-08T02:20:10.655Z,16.88
2022-12-08T02:22:19.411Z,15.15
2022-12-08T02:24:32.861Z,14.35
2022-12-08T02:27:09.773Z,14.93
2022-12-08T02:29:28.703Z,16.15
2022-12-08T02:34:10.910Z,13.68
2022-12-08T02:36:20.928Z,16.33
2022-12-08T02:38:35.689Z,15.98
2022-12-08T02:40:46.051Z,15.55
2022-12-08T02:42:56.339Z,15.27
2022-12-08T02:45:05.076Z,17.25
2022-12-08T02:47:12.236Z,16.45
2022-12-08T02:49:16.706Z,15.77
2022-12-08T02:51:19.490Z,20.33
2022-12-08T02:53:22.081Z,16.67
2022-12-08T02:55:29.366Z,18.33
2022-12-08T02:57:39.567Z,18.95
2022-12-08T02:59:57.505Z,22.30
2022-12-08T03:02:13.635Z,15.88
2022-12-08T03:04:27.705Z,21.55
2022-12-08T03:06:36.330Z,17.25
2022-12-08T03:08:47.701Z,17.40
2022-12-08T03:10:57.144Z,15.13
2022-12-08T03:13:06.598Z,14.63
2022-12-08T03:15:13.163Z,14.90
2022-12-08T03:17:19.360Z,15.98
2022-12-08T03:19:27.346Z,17.55
2022-12-08T03:21:34.111Z,15.43
2022-12-08T03:23:37.899Z,13.85
2022-12-08T03:25:48.362Z,14.93
2022-12-08T03:27:52.532Z,17.70
2022-12-08T03:29:57.340Z,15.02
2022-12-08T03:32:07.960Z,16.55
2022-12-08T03:34:13.004Z,14.88
2022-12-08T03:36:17.094Z,14.65
2022-12-08T03:38:19.878Z,14.00
2022-12-08T03:40:22.532Z,13.85
2022-12-08T03:42:25.194Z,13.65
2022-12-08T03:44:27.949Z,14.50
2022-12-08T03:48:33.148Z,16.63
2022-12-08T03:50:35.816Z,16.02
2022-12-08T03:52:39.915Z,15.75
2022-12-08T03:54:42.661Z,17.30
2022-12-08T03:56:45.340Z,13.85
2022-12-08T03:58:48.067Z,15.15
2022-12-08T04:00:50.780Z,16.27
2022-12-08T04:02:53.668Z,17.50
2022-12-08T04:04:56.390Z,14.88
2022-12-08T04:06:59.016Z,16.50
2022-12-08T04:09:02.992Z,15.23
2022-12-08T04:11:06.578Z,15.57
2022-12-08T04:13:09.269Z,19.70
2022-12-08T04:15:12.406Z,16.60
2022-12-08T04:17:15.082Z,16.30
2022-12-08T04:19:17.825Z,15.50
2022-12-08T04:21:21.160Z,19.08
2022-12-08T04:23:24.308Z,14.10
2022-12-08T04:25:28.791Z,19.20
2022-12-08T04:27:31.381Z,15.88
2022-12-08T04:29:34.074Z,16.02
2022-12-08T04:31:36.812Z,18.13
2022-12-08T04:33:39.719Z,16.85
2022-12-08T04:35:42.439Z,16.52
2022-12-08T04:37:45.202Z,19.17
2022-12-08T04:39:47.970Z,15.35
2022-12-08T04:41:52.004Z,14.52
2022-12-08T04:43:54.615Z,17.40
2022-12-08T04:45:57.413Z,16.80
2022-12-08T04:48:00.766Z,21.55
2022-12-08T04:50:03.796Z,18.35
2022-12-08T04:52:06.692Z,18.15
2022-12-08T04:54:09.407Z,15.60
2022-12-08T04:56:14.346Z,16.42
2022-12-08T04:58:20.378Z,19.27
2022-12-08T05:00:23.284Z,18.35
2022-12-08T05:02:25.992Z,17.20
2022-12-08T05:04:28.845Z,15.98
2022-12-08T05:06:34.817Z,15.25
2022-12-08T05:08:37.550Z,15.63
2022-12-08T05:10:40.639Z,15.18
2022-12-08T05:12:43.281Z,15.80
2022-12-08T05:14:47.755Z,16.92
2022-12-08T05:16:50.543Z,17.08
2022-12-08T05:18:53.367Z,14.70
2022-12-08T05:20:56.116Z,13.05
2022-12-08T05:22:58.831Z,14.90
2022-12-08T05:25:01.662Z,13.95
2022-12-08T05:27:04.607Z,17.33
2022-12-08T05:29:07.291Z,13.82
2022-12-08T05:31:11.720Z,14.32
2022-12-08T05:33:14.479Z,15.13
2022-12-08T05:35:17.102Z,16.23
2022-12-08T05:37:19.800Z,14.20
2022-12-08T05:39:22.513Z,15.60
2022-12-08T05:41:25.803Z,16.40
2022-12-08T05:43:28.999Z,12.48
2022-12-08T05:45:31.729Z,14.98
2022-12-08T05:47:36.170Z,17.67
2022-12-08T05:49:39.190Z,14.27
2022-12-08T05:51:41.930Z,14.38
2022-12-08T05:53:44.608Z,14.77
2022-12-08T05:55:48.546Z,14.82
2022-12-08T05:57:51.291Z,15.02
2022-12-08T05:59:53.982Z,13.18
2022-12-08T06:01:56.773Z,12.98
2022-12-08T06:04:02.166Z,13.60
2022-12-08T06:06:05.332Z,14.13
2022-12-08T06:08:08.146Z,15.40
2022-12-08T06:10:11.349Z,14.13
2022-12-08T06:12:14.021Z,13.43
2022-12-08T06:14:16.735Z,14.75
2022-12-08T06:16:20.222Z,14.00
2022-12-08T06:18:22.999Z,14.75
2022-12-08T06:20:27.081Z,17.02
2022-12-08T06:22:30.314Z,13.80
2022-12-08T06:24:33.089Z,16.80
2022-12-08T06:26:36.007Z,14.93
2022-12-08T06:28:39.236Z,13.25
2022-12-08T06:30:41.894Z,15.25
2022-12-08T06:32:45.581Z,21.67
2022-12-08T06:34:48.226Z,16.65
2022-12-08T06:36:52.217Z,17.33
2022-12-08T06:38:55.052Z,18.38
2022-12-08T06:40:58.995Z,19.65
2022-12-08T06:43:01.633Z,18.98
2022-12-08T06:45:04.993Z,14.40
2022-12-08T06:47:07.605Z,16.67
2022-12-08T06:49:10.329Z,16.08
2022-12-08T06:51:15.934Z,15.65
2022-12-08T06:53:20.035Z,17.52
2022-12-08T06:55:50.960Z,14.63
2022-12-08T06:57:45.617Z,15.05
2022-12-08T06:59:48.392Z,16.85
2022-12-08T07:01:51.116Z,20.75
2022-12-08T07:03:54.424Z,16.30
2022-12-08T07:06:03.533Z,18.10
2022-12-08T07:08:08.588Z,18.63
2022-12-08T07:10:13.132Z,14.10
2022-12-08T07:12:16.019Z,16.85
2022-12-08T07:14:20.244Z,16.33
2022-12-08T07:16:23.158Z,12.05
2022-12-08T07:18:25.790Z,13.63
2022-12-08T07:20:28.616Z,15.10
2022-12-08T07:22:31.372Z,16.60
2022-12-08T07:24:34.358Z,18.23
2022-12-08T07:26:39.915Z,16.70
2022-12-08T07:28:43.610Z,16.58
2022-12-08T07:30:46.574Z,20.80
2022-12-08T07:32:49.526Z,16.17
2022-12-08T07:34:52.195Z,15.93
2022-12-08T07:36:54.813Z,15.80
2022-12-08T07:38:57.745Z,15.23
2022-12-08T07:41:00.480Z,14.18
2022-12-08T07:43:04.583Z,16.85
2022-12-08T07:45:08.595Z,12.23
2022-12-08T07:47:11.386Z,14.35
2022-12-08T07:49:14.483Z,14.93
2022-12-08T07:51:18.893Z,16.20
2022-12-08T07:53:21.654Z,12.25
2022-12-08T07:55:24.369Z,12.52
2022-12-08T07:57:27.174Z,13.70
2022-12-08T07:59:31.254Z,12.95
2022-12-08T08:01:36.015Z,11.73
2022-12-08T08:03:38.801Z,12.95
2022-12-08T08:05:41.815Z,12.20
2022-12-08T08:07:46.540Z,11.63
2022-12-08T08:09:49.206Z,12.50
2022-12-08T08:12:14.444Z,11.90
2022-12-08T08:14:14.604Z,11.82
2022-12-08T08:16:19.845Z,11.57
2022-12-08T08:18:22.678Z,12.93
2022-12-08T08:20:25.544Z,12.00
2022-12-08T08:22:28.566Z,12.73
2022-12-08T08:24:31.473Z,12.63
2022-12-08T08:26:34.200Z,13.18
2022-12-08T08:28:37.017Z,12.95
2022-12-08T08:30:40.093Z,13.43
2022-12-08T08:32:44.281Z,10.80
2022-12-08T08:34:46.936Z,13.63
2022-12-08T08:36:49.605Z,11.05
2022-12-08T08:38:52.369Z,12.57
2022-12-08T08:40:55.019Z,12.73
2022-12-08T08:42:57.655Z,13.52
2022-12-08T08:45:00.289Z,13.75
2022-12-08T08:47:02.984Z,13.75
2022-12-08T08:49:07.289Z,15.05
2022-12-08T08:51:12.211Z,14.95
2022-12-08T08:53:14.892Z,10.95
2022-12-08T08:55:17.679Z,11.88
2022-12-08T08:57:25.248Z,12.07
2022-12-08T08:59:29.559Z,11.98
2022-12-08T09:01:32.409Z,17.10
2022-12-08T09:03:35.551Z,12.85
2022-12-08T09:05:41.306Z,10.32
2022-12-08T09:07:44.025Z,13.05
2022-12-08T09:09:46.784Z,12.30
2022-12-08T09:11:49.584Z,12.38
2022-12-08T09:13:53.386Z,12.57
2022-12-08T09:15:56.154Z,9.70
2022-12-08T09:17:58.844Z,10.57
2022-12-08T09:20:01.943Z,12.48
2022-12-08T09:22:06.834Z,12.15
2022-12-08T09:24:15.405Z,10.93
2022-12-08T09:26:18.115Z,10.30
2022-12-08T09:28:20.766Z,12.40
2022-12-08T09:30:23.529Z,10.50
2022-12-08T09:32:26.323Z,10.48
2022-12-08T09:34:29.285Z,11.02
2022-12-08T09:36:32.330Z,9.98
2022-12-08T09:38:36.729Z,9.77
2022-12-08T09:40:49.324Z,9.50
2022-12-08T09:42:55.561Z,9.60
2022-12-08T09:45:05.567Z,9.93
2022-12-08T09:47:17.215Z,10.00
2022-12-08T09:49:24.264Z,9.40
2022-12-08T09:51:28.533Z,10.90
2022-12-08T09:53:36.681Z,8.85
2022-12-08T09:55:45.204Z,10.13
2022-12-08T09:57:56.473Z,9.27
2022-12-08T10:00:05.366Z,9.30
2022-12-08T10:02:22.624Z,10.25
2022-12-08T10:04:27.788Z,10.40
2022-12-08T10:06:34.656Z,9.13
2022-12-08T10:08:47.041Z,9.10
2022-12-08T10:10:58.320Z,10.93
2022-12-08T10:13:06.868Z,9.15
2022-12-08T10:15:27.574Z,9.98
2022-12-08T10:17:35.182Z,9.63
2022-12-08T10:19:41.475Z,10.27
2022-12-08T10:21:44.165Z,8.98
2022-12-08T10:23:51.064Z,9.63
2022-12-08T10:26:01.597Z,10.05
2022-12-08T10:28:04.301Z,10.57
2022-12-08T10:30:13.283Z,10.07
2022-12-08T10:32:19.769Z,9.02
2022-12-08T10:34:24.647Z,10.98
2022-12-08T10:36:47.026Z,9.00
2022-12-08T10:38:49.792Z,7.88
2022-12-08T10:40:54.774Z,10.57
2022-12-08T10:43:00.261Z,7.55
2022-12-08T10:45:22.832Z,10.70
2022-12-08T10:47:28.336Z,8.98
2022-12-08T10:49:33.560Z,9.73
2022-12-08T10:51:40.038Z,9.50
2022-12-08T10:53:47.445Z,7.45
2022-12-08T10:55:52.301Z,6.63
2022-12-08T10:57:54.933Z,8.15
2022-12-08T10:59:59.052Z,10.20
2022-12-08T11:02:02.236Z,10.02
2022-12-08T11:04:08.055Z,7.85
2022-12-08T11:06:16.222Z,7.57
2022-12-08T11:08:18.956Z,8.52
2022-12-08T11:10:28.402Z,9.82
2022-12-08T11:12:32.176Z,7.38
2022-12-08T11:14:51.580Z,6.07
2022-12-08T11:16:57.979Z,9.20
2022-12-08T11:19:06.644Z,8.95
2022-12-08T11:21:14.350Z,6.55
2022-12-08T11:23:22.513Z,10.05
2022-12-08T11:25:27.313Z,7.80
2022-12-08T11:27:30.363Z,8.48
2022-12-08T11:29:34.841Z,7.90
2022-12-08T11:31:44.198Z,8.43
2022-12-08T11:33:49.680Z,7.07
2022-12-08T11:35:57.421Z,7.55
2022-12-08T11:38:20.638Z,5.07
2022-12-08T11:40:27.232Z,6.10
2022-12-08T11:42:36.494Z,7.53
2022-12-08T11:44:43.420Z,8.32
2022-12-08T11:49:04.333Z,6.75
2022-12-08T11:51:13.838Z,7.38
2022-12-08T11:53:28.920Z,8.10
2022-12-08T11:55:39.003Z,8.75
2022-12-08T11:57:42.800Z,9.60
2022-12-08T11:59:49.650Z,8.85
2022-12-08T12:01:52.531Z,8.32
2022-12-08T12:04:13.777Z,7.88
2022-12-08T12:09:07.113Z,10.05
2022-12-08T12:11:39.494Z,7.18
2022-12-08T12:13:57.621Z,5.90
2022-12-08T12:16:36.569Z,5.82
2022-12-08T12:18:45.358Z,5.88
2022-12-08T12:20:55.888Z,6.63
2022-12-08T12:23:04.801Z,8.20
2022-12-08T12:25:17.280Z,10.23
2022-12-08T12:27:26.238Z,7.22
2022-12-08T12:29:33.203Z,5.72
2022-12-08T12:31:41.413Z,7.05
2022-12-08T12:33:46.559Z,4.80
2022-12-08T12:35:50.961Z,5.78
2022-12-08T12:37:58.898Z,6.03
2022-12-08T12:40:06.805Z,7.65
2022-12-08T12:42:09.618Z,5.43
2022-12-08T12:44:40.591Z,8.35
2022-12-08T12:46:58.596Z,6.32
2022-12-08T12:49:36.951Z,6.03
2022-12-08T12:51:47.540Z,5.10
2022-12-08T12:53:52.055Z,7.40
2022-12-08T12:55:56.350Z,6.30
2022-12-08T12:58:00.212Z,5.93
2022-12-08T13:00:11.477Z,7.82
2022-12-08T13:02:21.255Z,6.93
2022-12-08T13:04:36.868Z,6.53
2022-12-08T13:06:43.094Z,6.03
2022-12-08T13:08:52.184Z,6.57
2022-12-08T13:11:01.780Z,6.25
2022-12-08T13:13:08.890Z,6.55
2022-12-08T13:15:19.618Z,6.63
2022-12-08T13:17:28.315Z,8.00
2022-12-08T13:19:33.595Z,6.97
2022-12-08T13:21:39.280Z,7.55
2022-12-08T13:23:47.606Z,6.63
2022-12-08T13:25:54.095Z,8.45
2022-12-08T13:27:56.776Z,8.07
2022-12-08T13:30:42.856Z,6.30
2022-12-08T13:35:20.917Z,6.75
2022-12-08T13:37:26.948Z,6.47
2022-12-08T13:39:37.946Z,7.53
2022-12-08T13:41:49.033Z,7.05
2022-12-08T13:44:39.137Z,7.70
2022-12-08T13:50:23.361Z,6.07
2022-12-08T13:53:22.375Z,6.68
2022-12-08T13:58:39.529Z,5.05
2022-12-08T14:00:42.325Z,6.55
2022-12-08T14:02:48.603Z,9.85
2022-12-08T14:05:17.402Z,5.68
2022-12-08T14:07:15.582Z,6.05
2022-12-08T14:09:22.173Z,6.93
2022-12-08T14:11:35.053Z,5.55
2022-12-08T14:13:39.065Z,6.03
2022-12-08T14:15:41.817Z,8.40
2022-12-08T14:17:52.477Z,7.05
2022-12-08T14:19:57.262Z,8.43
2022-12-08T14:22:02.165Z,6.07
2022-12-08T14:24:05.267Z,6.07
2022-12-08T14:26:08.128Z,6.32
2022-12-08T14:28:11.472Z,7.00
2022-12-08T14:30:21.537Z,6.22
2022-12-08T14:32:28.260Z,6.28
2022-12-08T14:34:32.904Z,9.93
2022-12-08T14:36:36.262Z,6.20
2022-12-08T14:38:39.101Z,7.75
2022-12-08T14:40:43.575Z,7.10
2022-12-08T14:42:47.845Z,5.80
2022-12-08T14:44:57.718Z,10.40
2022-12-08T14:47:11.605Z,6.72
2022-12-08T14:49:35.735Z,6.75
2022-12-08T14:51:40.845Z,10.02
2022-12-08T14:53:46.730Z,7.45
2022-12-08T14:55:50.355Z,5.32
2022-12-08T14:57:53.102Z,9.07
2022-12-08T14:59:55.857Z,7.18
2022-12-08T15:02:14.573Z,7.85
2022-12-08T15:04:21.153Z,8.25
2022-12-08T15:06:24.157Z,6.00
2022-12-08T15:08:26.941Z,7.20
2022-12-08T15:10:31.887Z,6.88
2022-12-08T15:12:34.580Z,8.30
2022-12-08T15:14:41.308Z,4.63
2022-12-08T15:16:44.890Z,10.45
2022-12-08T15:19:01.790Z,7.05
2022-12-08T15:21:06.164Z,10.13
2022-12-08T15:23:21.108Z,5.38
2022-12-08T15:25:25.447Z,7.63
2022-12-08T15:27:28.210Z,9.02
2022-12-08T15:29:31.888Z,7.30
2022-12-08T15:31:34.592Z,7.57
2022-12-08T15:33:37.317Z,8.00
2022-12-08T15:35:41.657Z,10.10
2022-12-08T15:37:44.622Z,10.07
2022-12-08T15:39:47.291Z,11.40
2022-12-08T15:41:49.961Z,8.27
2022-12-08T15:43:52.590Z,10.55
2022-12-08T15:46:00.364Z,11.20
2022-12-08T15:48:03.188Z,9.82
2022-12-08T15:50:07.466Z,10.85
2022-12-08T15:52:15.979Z,12.52
2022-12-08T15:54:18.983Z,9.35
2022-12-08T15:56:29.077Z,8.90
2022-12-08T15:58:53.011Z,10.27
2022-12-08T16:00:55.938Z,16.80
2022-12-08T16:03:34.149Z,14.35
2022-12-08T16:07:46.587Z,10.55
2022-12-08T16:09:49.730Z,13.18
2022-12-08T16:12:10.598Z,10.10
2022-12-08T16:15:23.076Z,7.90
2022-12-08T16:16:36.304Z,10.45
2022-12-08T16:18:40.058Z,8.80
2022-12-08T16:21:07.492Z,10.45
2022-12-08T16:23:26.347Z,8.52
2022-12-08T16:25:46.290Z,9.13
2022-12-08T16:28:17.507Z,12.48
2022-12-08T16:32:21.036Z,11.73
2022-12-08T16:34:23.783Z,8.60
2022-12-08T16:36:26.461Z,9.60
2022-12-08T16:38:30.503Z,10.32
2022-12-08T16:40:33.381Z,8.88
2022-12-08T16:42:43.444Z,9.63
2022-12-08T16:44:46.152Z,7.97
2022-12-08T16:46:48.778Z,7.55
2022-12-08T16:48:51.495Z,10.00
2022-12-08T16:50:54.910Z,13.43
2022-12-08T16:52:59.652Z,9.50
2022-12-08T16:55:04.222Z,9.27
2022-12-08T16:57:07.168Z,8.82
2022-12-08T16:59:09.817Z,7.20
2022-12-08T17:01:13.177Z,9.52
2022-12-08T17:03:17.230Z,11.27
2022-12-08T17:05:21.549Z,9.70
2022-12-08T17:07:24.329Z,9.23
2022-12-08T17:09:28.416Z,9.95
2022-12-08T17:11:37.471Z,11.13
2022-12-08T17:13:43.049Z,11.18
2022-12-08T17:15:45.791Z,10.98
2022-12-08T17:17:48.605Z,11.50
2022-12-08T17:19:51.389Z,10.32
2022-12-08T17:21:54.069Z,9.88
2022-12-08T17:23:56.768Z,8.38
2022-12-08T17:26:00.464Z,10.57
2022-12-08T17:28:04.597Z,12.07
2022-12-08T17:30:09.692Z,11.82
2022-12-08T17:32:12.491Z,10.13
2022-12-08T17:34:15.494Z,11.00
2022-12-08T17:36:18.398Z,9.60
2022-12-08T17:38:22.888Z,10.55
2022-12-08T17:40:28.357Z,10.77
2022-12-08T17:42:31.283Z,7.40
2022-12-08T17:44:35.650Z,10.65
2022-12-08T17:46:42.085Z,12.98
2022-12-08T17:48:46.472Z,10.23
2022-12-08T17:50:49.133Z,7.50
2022-12-08T17:52:52.287Z,9.27
2022-12-08T17:54:55.059Z,7.60
2022-12-08T17:56:58.950Z,9.77
2022-12-08T17:59:04.426Z,9.00
2022-12-08T18:01:10.459Z,10.82
2022-12-08T18:03:13.180Z,9.70
2022-12-08T18:05:15.820Z,11.20
2022-12-08T18:07:18.482Z,7.97
2022-12-08T18:09:21.460Z,11.43
2022-12-08T18:11:25.059Z,9.90
2022-12-08T18:13:27.740Z,9.90
2022-12-08T18:15:34.718Z,9.63
2022-12-08T18:17:41.643Z,7.28
2022-12-08T18:19:44.300Z,8.23
2022-12-08T18:21:47.029Z,8.77
2022-12-08T18:23:49.835Z,13.13
2022-12-08T18:25:52.563Z,11.73
2022-12-08T18:27:55.334Z,10.55
2022-12-08T18:29:58.078Z,8.75
2022-12-08T18:32:00.956Z,9.77
2022-12-08T18:34:05.045Z,9.70
2022-12-08T18:36:10.324Z,8.90
2022-12-08T18:38:13.019Z,9.82
2022-12-08T18:40:16.448Z,8.85
2022-12-08T18:42:27.760Z,8.13
2022-12-08T18:44:30.404Z,11.05
2022-12-08T18:46:33.208Z,11.65
2022-12-08T18:48:36.972Z,9.48
2022-12-08T18:50:44.748Z,9.98
2022-12-08T18:52:47.734Z,9.38
2022-12-08T18:55:05.695Z,8.68
2022-12-08T18:57:09.627Z,9.35
2022-12-08T18:59:13.527Z,9.23
2022-12-08T19:01:16.765Z,9.55
2022-12-08T19:03:19.474Z,8.95
2022-12-08T19:05:22.171Z,8.32
2022-12-08T19:07:26.253Z,10.27
2022-12-08T19:09:29.028Z,10.45
2022-12-08T19:11:31.748Z,9.75
2022-12-08T19:13:34.427Z,9.63
2022-12-08T19:15:37.196Z,8.00
2022-12-08T19:17:39.875Z,9.15
2022-12-08T19:19:42.698Z,9.55
2022-12-08T19:21:46.633Z,10.52
2022-12-08T19:23:51.711Z,11.13
2022-12-08T19:25:54.332Z,8.82
2022-12-08T19:27:57.041Z,8.98
2022-12-08T19:29:59.654Z,7.43
2022-12-08T19:32:03.198Z,12.70
2022-12-08T19:34:06.590Z,8.38
2022-12-08T19:36:11.376Z,9.68
2022-12-08T19:38:14.231Z,9.88
2022-12-08T19:40:35.717Z,10.63
2022-12-08T19:42:55.963Z,11.43
2022-12-08T19:45:02.040Z,10.77
2022-12-08T19:47:05.293Z,12.00
2022-12-08T19:49:08.008Z,12.95
2022-12-08T19:51:11.058Z,11.60
2022-12-08T19:53:15.722Z,11.52
2022-12-08T19:55:20.077Z,10.23
2022-12-08T19:57:22.683Z,12.50
2022-12-08T19:59:26.379Z,12.15
2022-12-08T20:01:29.075Z,12.82
2022-12-08T20:03:31.915Z,13.70
2022-12-08T20:05:36.877Z,13.40
2022-12-08T20:07:39.825Z,12.02
2022-12-08T20:09:42.507Z,18.77
2022-12-08T20:11:46.526Z,14.73
2022-12-08T20:13:49.164Z,17.58
2022-12-08T20:15:51.973Z,17.27
2022-12-08T20:17:54.641Z,15.98
2022-12-08T20:19:57.305Z,12.85
2022-12-08T20:21:59.978Z,11.88
2022-12-08T20:24:04.409Z,15.60
2022-12-08T20:26:08.635Z,14.50
2022-12-08T20:28:12.933Z,13.90
2022-12-08T20:30:17.421Z,13.00
2022-12-08T20:32:20.265Z,16.50
2022-12-08T20:34:22.909Z,12.80
2022-12-08T20:36:25.735Z,10.93
2022-12-08T20:38:28.469Z,15.15
2022-12-08T20:40:31.217Z,15.63
2022-12-08T20:42:33.905Z,18.80
2022-12-08T20:44:43.156Z,19.15
2022-12-08T20:46:49.413Z,16.77
2022-12-08T20:48:52.510Z,16.13
2022-12-08T20:50:55.353Z,18.92
2022-12-08T20:52:58.004Z,14.43
2022-12-08T20:55:00.861Z,14.10
2022-12-08T20:57:03.615Z,16.42
2022-12-08T20:59:06.706Z,14.07
2022-12-08T21:01:12.552Z,15.25
2022-12-08T21:03:17.481Z,14.07
2022-12-08T21:05:20.485Z,14.32
2022-12-08T21:07:23.259Z,14.15
2022-12-08T21:09:26.016Z,12.80
2022-12-08T21:11:28.936Z,13.90
2022-12-08T21:13:31.751Z,15.27
2022-12-08T21:15:34.437Z,13.73
2022-12-08T21:17:38.591Z,14.85
2022-12-08T21:19:41.486Z,15.88
2022-12-08T21:21:45.821Z,13.00
2022-12-08T21:23:48.710Z,12.27
2022-12-08T21:25:51.473Z,14.88
2022-12-08T21:27:54.360Z,13.98
2022-12-08T21:29:57.141Z,13.30
2022-12-08T21:32:00.182Z,13.15
2022-12-08T21:34:04.822Z,14.95
2022-12-08T21:36:09.508Z,13.13
2022-12-08T21:38:12.409Z,14.05
2022-12-08T21:40:15.405Z,14.80
2022-12-08T21:42:35.621Z,14.30
2022-12-08T21:44:38.400Z,18.50
2022-12-08T21:46:41.155Z,13.23
2022-12-08T21:48:43.955Z,15.57
2022-12-08T21:50:48.117Z,16.08
2022-12-08T21:52:51.028Z,19.08
2022-12-08T21:54:53.674Z,13.27
2022-12-08T21:56:56.530Z,16.08
2022-12-08T21:58:59.282Z,20.08
2022-12-08T22:01:06.678Z,15.82
2022-12-08T22:03:14.128Z,16.90
2022-12-08T22:05:17.375Z,17.30
2022-12-08T22:07:22.149Z,21.15
2022-12-08T22:09:25.119Z,17.48
2022-12-08T22:11:28.312Z,17.83
2022-12-08T22:13:30.978Z,19.05
2022-12-08T22:15:33.820Z,18.85
2022-12-08T22:17:38.140Z,17.50
2022-12-08T22:19:41.077Z,20.98
2022-12-08T22:21:43.975Z,17.90
2022-12-08T22:23:48.249Z,16.52
2022-12-08T22:25:57.578Z,14.07
2022-12-08T22:28:00.404Z,16.52
2022-12-08T22:30:03.775Z,13.13
2022-12-08T22:32:06.902Z,15.00
2022-12-08T22:34:09.917Z,16.92
2022-12-08T22:36:15.985Z,15.10
2022-12-08T22:38:18.667Z,15.43
2022-12-08T22:40:22.715Z,14.43
2022-12-08T22:42:25.417Z,16.10
2022-12-08T22:44:28.715Z,14.98
2022-12-08T22:46:31.693Z,13.88
2022-12-08T22:48:34.481Z,14.75
2022-12-08T22:50:37.380Z,12.00
2022-12-08T22:52:40.178Z,12.10
2022-12-08T22:54:42.826Z,12.27
2022-12-08T22:56:46.919Z,16.00
2022-12-08T22:58:49.873Z,14.50
2022-12-08T23:00:52.571Z,14.27
2022-12-08T23:02:55.286Z,15.50
2022-12-08T23:04:58.405Z,13.48
2022-12-08T23:07:01.395Z,14.00
2022-12-08T23:09:04.314Z,14.15
2022-12-08T23:11:07.242Z,15.98
2022-12-08T23:13:12.441Z,12.00
2022-12-08T23:15:15.156Z,12.82
2022-12-08T23:17:19.117Z,14.45
2022-12-08T23:19:21.934Z,14.02
2022-12-08T23:21:24.877Z,15.63
2022-12-08T23:23:27.557Z,14.55
2022-12-08T23:25:30.360Z,11.23
2022-12-08T23:27:33.733Z,13.55
2022-12-08T23:29:38.052Z,11.65
2022-12-08T23:31:40.803Z,11.93
2022-12-08T23:33:44.343Z,10.73
2022-12-08T23:35:47.107Z,12.00
2022-12-08T23:37:49.837Z,10.73
2022-12-08T23:39:52.546Z,13.02
2022-12-08T23:41:55.280Z,12.27
2022-12-08T23:43:58.179Z,11.73
2022-12-08T23:46:02.820Z,10.93
2022-12-08T23:48:05.738Z,11.60
2022-12-08T23:50:10.085Z,13.73
2022-12-08T23:52:13.876Z,13.98
2022-12-08T23:54:17.075Z,10.80
2022-12-08T23:56:22.235Z,11.20
2022-12-08T23:58:27.086Z,11.93
